MOL Beyond — VRPN8 — position and weather

sailwx.info

Track history (hours):
 
Tides and Currents Weather Stations Pressure Air Temp Water Temp Dewpoint Dewpoint Depression Visibility Wind Speed Wind Dir Waves Ship Positions

MOL Beyond

Last reported at 2017-Nov-12 05:12 UTC. Time now 2017-Nov-22 21:59 UTC.
Position N 01°17' E 103°21'.
Warning: this ship's position is 10 days out of date.

Length 337 m; draft 14.2 m.

Type: Ship (hazmat cat A). MMSI: 477348300.

Date/timePositionNaut miles runAvg speedWind from/ knotsBaromVisibWave heightAir tempDewpointWater temp
2017-Nov-12 05:12N 01°17' E 103°21'519.4
2017-Nov-12 04:56N 01°14' E 103°25'819.9
2017-Nov-12 04:31N 01°12' E 103°34'918.4
2017-Nov-12 04:01N 01°09' E 103°42'816.4
2017-Nov-12 03:31N 01°12' E 103°50'4 7.3
2017-Nov-12 03:00N 01°15' E 103°51'1 1.8
2017-Nov-12 02:30N 01°16' E 103°51'0 0.2
2017-Nov-12 02:00N 01°16' E 103°51'0 0.0
2017-Nov-12 01:30N 01°16' E 103°51'0 0.0
2017-Nov-12 01:00N 01°16' E 103°51'0 0.0
2017-Nov-12 00:30N 01°16' E 103°51'0 0.0
2017-Nov-11 23:57N 01°16' E 103°51'0 0.0
2017-Nov-11 23:30N 01°16' E 103°51'0 0.0
2017-Nov-11 23:00N 01°16' E 103°51'0 0.0
2017-Nov-11 22:30N 01°16' E 103°51'0 0.0
2017-Nov-11 22:00N 01°16' E 103°51'0 0.0
2017-Nov-11 21:30N 01°16' E 103°51'0 0.0
2017-Nov-11 21:00N 01°16' E 103°51'0 0.0
2017-Nov-11 20:30N 01°16' E 103°51'0 0.0
2017-Nov-11 20:00N 01°16' E 103°51'0 0.0
2017-Nov-11 19:30N 01°16' E 103°51'0 0.0
2017-Nov-11 19:00N 01°16' E 103°51'0 0.0
2017-Nov-11 18:30N 01°16' E 103°51'0 0.0
2017-Nov-11 17:51N 01°16' E 103°51'0 0.0
2017-Nov-11 17:30N 01°16' E 103°51'0 0.0
2017-Nov-11 16:57N 01°16' E 103°51'0 0.0
2017-Nov-11 16:18N 01°16' E 103°51'0 0.0
2017-Nov-11 15:57N 01°16' E 103°51'0 0.0
2017-Nov-11 15:30N 01°16' E 103°51'0 0.0
2017-Nov-11 15:00N 01°16' E 103°51'0 0.0
2017-Nov-11 14:30N 01°16' E 103°51'0 0.0
2017-Nov-11 14:00N 01°16' E 103°51'0 0.0
2017-Nov-11 13:30N 01°16' E 103°51'0 0.0
2017-Nov-11 13:00N 01°16' E 103°51'0 0.0
2017-Nov-11 12:30N 01°16' E 103°51'0 0.0
2017-Nov-11 12:00N 01°16' E 103°51'0 0.0
2017-Nov-11 11:30N 01°16' E 103°51'0 0.0
2017-Nov-11 11:00N 01°16' E 103°51'0 0.0
2017-Nov-11 10:30N 01°16' E 103°51'0 0.0
2017-Nov-11 10:00N 01°16' E 103°51'0 0.0
2017-Nov-11 09:30N 01°16' E 103°51'0 0.0
2017-Nov-11 09:00N 01°16' E 103°51'0 0.5
2017-Nov-11 08:30N 01°16' E 103°51'2 3.7
2017-Nov-11 08:00N 01°14' E 103°52'2 3.3
2017-Nov-11 07:30N 01°14' E 103°54'3 5.2
2017-Nov-11 07:00N 01°14' E 103°56'3 6.8
2017-Nov-11 06:30N 01°15' E 103°59'5 9.8
2017-Nov-11 05:58N 01°16' E 104°05'7 9.6
2017-Nov-11 05:16N 01°16' E 104°11'2 5.4
2017-Nov-11 04:53N 01°14' E 104°13'0 0.3
2017-Nov-11 04:18N 01°14' E 104°13'  
2017-Nov-06 02:31N 22°09' E 114°33'918.6
2017-Nov-06 02:00N 22°18' E 114°31'917.5
2017-Nov-06 01:30N 22°27' E 114°28'4 8.1
2017-Nov-06 01:00N 22°30' E 114°25'815.6
2017-Nov-06 00:30N 22°34' E 114°18'1 1.5
2017-Nov-05 23:59N 22°34' E 114°17'0 0.0
2017-Nov-05 23:29N 22°34' E 114°17'0 0.0
2017-Nov-05 22:59N 22°34' E 114°17'0 0.0
2017-Nov-05 22:29N 22°34' E 114°17'0 0.0
2017-Nov-05 21:59N 22°34' E 114°17'0 0.0
2017-Nov-05 21:29N 22°34' E 114°17'0 0.0
2017-Nov-05 20:59N 22°34' E 114°17'0 0.0
2017-Nov-05 20:29N 22°34' E 114°17'0 0.0
2017-Nov-05 19:59N 22°34' E 114°17'0 0.0
2017-Nov-05 19:29N 22°34' E 114°17'0 0.0
2017-Nov-05 18:59N 22°34' E 114°17'0 0.0
2017-Nov-05 18:29N 22°34' E 114°17'0 0.0
2017-Nov-05 17:59N 22°34' E 114°17'0 0.0
2017-Nov-05 17:26N 22°34' E 114°17'0 0.0
2017-Nov-05 16:53N 22°34' E 114°17'0 0.0
2017-Nov-05 16:29N 22°34' E 114°17'0 0.0
2017-Nov-05 15:59N 22°34' E 114°17'0 0.0
2017-Nov-05 15:29N 22°34' E 114°17'0 0.0
2017-Nov-05 14:59N 22°34' E 114°17'0 0.0
2017-Nov-05 14:29N 22°34' E 114°17'0 0.0
2017-Nov-05 13:53N 22°34' E 114°17'0 0.0
2017-Nov-05 13:26N 22°34' E 114°17'0 0.0
2017-Nov-05 13:00N 22°34' E 114°17'0 0.0
2017-Nov-05 12:30N 22°34' E 114°17'0 0.0
2017-Nov-05 12:00N 22°34' E 114°17'0 0.0
2017-Nov-05 11:30N 22°34' E 114°17'0 0.0
2017-Nov-05 11:00N 22°34' E 114°17'0 0.0
2017-Nov-05 10:30N 22°34' E 114°17'0 0.0
2017-Nov-05 10:00N 22°34' E 114°17'0 0.0
2017-Nov-05 09:30N 22°34' E 114°17'0 0.0
2017-Nov-05 09:00N 22°34' E 114°17'0 0.0
2017-Nov-05 08:30N 22°34' E 114°17'0 0.0
2017-Nov-05 08:00N 22°34' E 114°17'0 0.0
2017-Nov-05 07:30N 22°34' E 114°17'0 0.0
2017-Nov-05 07:00N 22°34' E 114°17'0 0.0
2017-Nov-05 06:30N 22°34' E 114°17'0 0.0
2017-Nov-05 06:00N 22°34' E 114°17'0 0.0
2017-Nov-05 05:30N 22°34' E 114°17'0 0.0
2017-Nov-05 05:00N 22°34' E 114°17'0 0.0
2017-Nov-05 04:30N 22°34' E 114°17'0 0.0
2017-Nov-05 04:00N 22°34' E 114°17'0 0.0
2017-Nov-05 03:30N 22°34' E 114°17'0 0.0
2017-Nov-05 03:00N 22°34' E 114°17'0 0.0
2017-Nov-05 02:30N 22°34' E 114°17'0 0.0
2017-Nov-05 02:00N 22°34' E 114°17'0 0.0
2017-Nov-05 01:30N 22°34' E 114°17'0 0.0
2017-Nov-05 01:00N 22°34' E 114°17'0 0.0
2017-Nov-05 00:30N 22°34' E 114°17'0 0.0
2017-Nov-05 00:00N 22°34' E 114°17'0 0.0
2017-Nov-04 23:30N 22°34' E 114°17'0 0.0
2017-Nov-04 23:00N 22°34' E 114°17'0 0.0
2017-Nov-04 22:30N 22°34' E 114°17'0 0.0
2017-Nov-04 22:00N 22°34' E 114°17'0 0.0
2017-Nov-04 21:30N 22°34' E 114°17'0 0.0
2017-Nov-04 21:00N 22°34' E 114°17'0 0.0
2017-Nov-04 20:30N 22°34' E 114°17'0 0.0
2017-Nov-04 20:00N 22°34' E 114°17'0 0.0
2017-Nov-04 19:30N 22°34' E 114°17'0 0.0
2017-Nov-04 19:00N 22°34' E 114°17'0 0.0
2017-Nov-04 18:30N 22°34' E 114°17'0 0.0
2017-Nov-04 18:00N 22°34' E 114°17'0 0.0
2017-Nov-04 17:30N 22°34' E 114°17'0 0.8
2017-Nov-04 17:00N 22°34' E 114°18'4 7.4
2017-Nov-04 16:31N 22°33' E 114°21'611.9
2017-Nov-04 16:00N 22°29' E 114°26'815.4
2017-Nov-04 15:31N 22°22' E 114°27'1121.3
2017-Nov-04 15:00N 22°11' E 114°26'918.3
2017-Nov-04 14:30N 22°07' E 114°17'917.5
2017-Nov-04 14:00N 22°12' E 114°10'8 0.4
2017-Nov-03 16:47N 22°19' E 114°06'410.8
2017-Nov-03 16:26N 22°15' E 114°07'5 9.5
2017-Nov-03 15:51N 22°11' E 114°12'5 9.6
2017-Nov-03 15:21N 22°08' E 114°15'512.5
2017-Nov-03 14:59N 22°08' E 114°20'612.8
2017-Nov-03 14:30N 22°08' E 114°27'611.7
2017-Nov-03 14:00N 22°07' E 114°33'612.4
2017-Nov-03 13:31N 22°07' E 114°40'714.8
2017-Nov-03 13:01N 22°06' E 114°48'815.0
2017-Nov-03 12:30N 22°07' E 114°56'1015.3
2017-Nov-03 11:52N 22°07' E 115°06'1815.0
2017-Nov-03 10:38N 22°07' E 115°26'415.0
2017-Nov-03 10:21N 22°07' E 115°31'515.0
2017-Nov-03 10:00N 22°07' E 115°37'714.9
2017-Nov-03 09:30N 22°07' E 115°45'815.3
2017-Nov-03 08:59N 22°08' E 115°53'715.5
2017-Nov-03 08:30N 22°08' E 116°01'1015.1
2017-Nov-03 07:51N 22°07' E 116°12'  
Track history (hours):
 
Tides and Currents Weather Stations Pressure Air Temp Water Temp Dewpoint Dewpoint Depression Visibility Wind Speed Wind Dir Waves Ship Positions

MOL Beyond

Last reported at 2017-Nov-12 05:12 UTC. Time now 2017-Nov-22 22:00 UTC.
Position N 01°17' E 103°21'.
Warning: this ship's position is 10 days out of date.

Length 337 m; draft 14.2 m.

Type: Ship (hazmat cat A). MMSI: 477348300.

Date/timePositionNaut miles runAvg speedWind from/ knotsBaromVisibWave heightAir tempDewpointWater temp
2017-Nov-12 05:12N 01°17' E 103°21'519.4
2017-Nov-12 04:56N 01°14' E 103°25'819.9
2017-Nov-12 04:31N 01°12' E 103°34'918.4
2017-Nov-12 04:01N 01°09' E 103°42'816.4
2017-Nov-12 03:31N 01°12' E 103°50'4 7.3
2017-Nov-12 03:00N 01°15' E 103°51'1 1.8
2017-Nov-12 02:30N 01°16' E 103°51'0 0.2
2017-Nov-12 02:00N 01°16' E 103°51'0 0.0
2017-Nov-12 01:30N 01°16' E 103°51'0 0.0
2017-Nov-12 01:00N 01°16' E 103°51'0 0.0
2017-Nov-12 00:30N 01°16' E 103°51'0 0.0
2017-Nov-11 23:57N 01°16' E 103°51'0 0.0
2017-Nov-11 23:30N 01°16' E 103°51'0 0.0
2017-Nov-11 23:00N 01°16' E 103°51'0 0.0
2017-Nov-11 22:30N 01°16' E 103°51'0 0.0
2017-Nov-11 22:00N 01°16' E 103°51'0 0.0
2017-Nov-11 21:30N 01°16' E 103°51'0 0.0
2017-Nov-11 21:00N 01°16' E 103°51'0 0.0
2017-Nov-11 20:30N 01°16' E 103°51'0 0.0
2017-Nov-11 20:00N 01°16' E 103°51'0 0.0
2017-Nov-11 19:30N 01°16' E 103°51'0 0.0
2017-Nov-11 19:00N 01°16' E 103°51'0 0.0
2017-Nov-11 18:30N 01°16' E 103°51'0 0.0
2017-Nov-11 17:51N 01°16' E 103°51'0 0.0
2017-Nov-11 17:30N 01°16' E 103°51'0 0.0
2017-Nov-11 16:57N 01°16' E 103°51'0 0.0
2017-Nov-11 16:18N 01°16' E 103°51'0 0.0
2017-Nov-11 15:57N 01°16' E 103°51'0 0.0
2017-Nov-11 15:30N 01°16' E 103°51'0 0.0
2017-Nov-11 15:00N 01°16' E 103°51'0 0.0
2017-Nov-11 14:30N 01°16' E 103°51'0 0.0
2017-Nov-11 14:00N 01°16' E 103°51'0 0.0
2017-Nov-11 13:30N 01°16' E 103°51'0 0.0
2017-Nov-11 13:00N 01°16' E 103°51'0 0.0
2017-Nov-11 12:30N 01°16' E 103°51'0 0.0
2017-Nov-11 12:00N 01°16' E 103°51'0 0.0
2017-Nov-11 11:30N 01°16' E 103°51'0 0.0
2017-Nov-11 11:00N 01°16' E 103°51'0 0.0
2017-Nov-11 10:30N 01°16' E 103°51'0 0.0
2017-Nov-11 10:00N 01°16' E 103°51'0 0.0
2017-Nov-11 09:30N 01°16' E 103°51'0 0.0
2017-Nov-11 09:00N 01°16' E 103°51'0 0.5
2017-Nov-11 08:30N 01°16' E 103°51'2 3.7
2017-Nov-11 08:00N 01°14' E 103°52'2 3.3
2017-Nov-11 07:30N 01°14' E 103°54'3 5.2
2017-Nov-11 07:00N 01°14' E 103°56'3 6.8
2017-Nov-11 06:30N 01°15' E 103°59'5 9.8
2017-Nov-11 05:58N 01°16' E 104°05'7 9.6
2017-Nov-11 05:16N 01°16' E 104°11'2 5.4
2017-Nov-11 04:53N 01°14' E 104°13'0 0.3
2017-Nov-11 04:18N 01°14' E 104°13'  
2017-Nov-06 02:31N 22°09' E 114°33'918.6
2017-Nov-06 02:00N 22°18' E 114°31'917.5
2017-Nov-06 01:30N 22°27' E 114°28'4 8.1
2017-Nov-06 01:00N 22°30' E 114°25'815.6
2017-Nov-06 00:30N 22°34' E 114°18'1 1.5
2017-Nov-05 23:59N 22°34' E 114°17'0 0.0
2017-Nov-05 23:29N 22°34' E 114°17'0 0.0
2017-Nov-05 22:59N 22°34' E 114°17'0 0.0
2017-Nov-05 22:29N 22°34' E 114°17'0 0.0
2017-Nov-05 21:59N 22°34' E 114°17'0 0.0
2017-Nov-05 21:29N 22°34' E 114°17'0 0.0
2017-Nov-05 20:59N 22°34' E 114°17'0 0.0
2017-Nov-05 20:29N 22°34' E 114°17'0 0.0
2017-Nov-05 19:59N 22°34' E 114°17'0 0.0
2017-Nov-05 19:29N 22°34' E 114°17'0 0.0
2017-Nov-05 18:59N 22°34' E 114°17'0 0.0
2017-Nov-05 18:29N 22°34' E 114°17'0 0.0
2017-Nov-05 17:59N 22°34' E 114°17'0 0.0
2017-Nov-05 17:26N 22°34' E 114°17'0 0.0
2017-Nov-05 16:53N 22°34' E 114°17'0 0.0
2017-Nov-05 16:29N 22°34' E 114°17'0 0.0
2017-Nov-05 15:59N 22°34' E 114°17'0 0.0
2017-Nov-05 15:29N 22°34' E 114°17'0 0.0
2017-Nov-05 14:59N 22°34' E 114°17'0 0.0
2017-Nov-05 14:29N 22°34' E 114°17'0 0.0
2017-Nov-05 13:53N 22°34' E 114°17'0 0.0
2017-Nov-05 13:26N 22°34' E 114°17'0 0.0
2017-Nov-05 13:00N 22°34' E 114°17'0 0.0
2017-Nov-05 12:30N 22°34' E 114°17'0 0.0
2017-Nov-05 12:00N 22°34' E 114°17'0 0.0
2017-Nov-05 11:30N 22°34' E 114°17'0 0.0
2017-Nov-05 11:00N 22°34' E 114°17'0 0.0
2017-Nov-05 10:30N 22°34' E 114°17'0 0.0
2017-Nov-05 10:00N 22°34' E 114°17'0 0.0
2017-Nov-05 09:30N 22°34' E 114°17'0 0.0
2017-Nov-05 09:00N 22°34' E 114°17'0 0.0
2017-Nov-05 08:30N 22°34' E 114°17'0 0.0
2017-Nov-05 08:00N 22°34' E 114°17'0 0.0
2017-Nov-05 07:30N 22°34' E 114°17'0 0.0
2017-Nov-05 07:00N 22°34' E 114°17'0 0.0
2017-Nov-05 06:30N 22°34' E 114°17'0 0.0
2017-Nov-05 06:00N 22°34' E 114°17'0 0.0
2017-Nov-05 05:30N 22°34' E 114°17'0 0.0
2017-Nov-05 05:00N 22°34' E 114°17'0 0.0
2017-Nov-05 04:30N 22°34' E 114°17'0 0.0
2017-Nov-05 04:00N 22°34' E 114°17'0 0.0
2017-Nov-05 03:30N 22°34' E 114°17'0 0.0
2017-Nov-05 03:00N 22°34' E 114°17'0 0.0
2017-Nov-05 02:30N 22°34' E 114°17'0 0.0
2017-Nov-05 02:00N 22°34' E 114°17'0 0.0
2017-Nov-05 01:30N 22°34' E 114°17'0 0.0
2017-Nov-05 01:00N 22°34' E 114°17'0 0.0
2017-Nov-05 00:30N 22°34' E 114°17'0 0.0
2017-Nov-05 00:00N 22°34' E 114°17'0 0.0
2017-Nov-04 23:30N 22°34' E 114°17'0 0.0
2017-Nov-04 23:00N 22°34' E 114°17'0 0.0
2017-Nov-04 22:30N 22°34' E 114°17'0 0.0
2017-Nov-04 22:00N 22°34' E 114°17'0 0.0
2017-Nov-04 21:30N 22°34' E 114°17'0 0.0
2017-Nov-04 21:00N 22°34' E 114°17'0 0.0
2017-Nov-04 20:30N 22°34' E 114°17'0 0.0
2017-Nov-04 20:00N 22°34' E 114°17'0 0.0
2017-Nov-04 19:30N 22°34' E 114°17'0 0.0
2017-Nov-04 19:00N 22°34' E 114°17'0 0.0
2017-Nov-04 18:30N 22°34' E 114°17'0 0.0
2017-Nov-04 18:00N 22°34' E 114°17'0 0.0
2017-Nov-04 17:30N 22°34' E 114°17'0 0.8
2017-Nov-04 17:00N 22°34' E 114°18'4 7.4
2017-Nov-04 16:31N 22°33' E 114°21'611.9
2017-Nov-04 16:00N 22°29' E 114°26'815.4
2017-Nov-04 15:31N 22°22' E 114°27'1121.3
2017-Nov-04 15:00N 22°11' E 114°26'918.3
2017-Nov-04 14:30N 22°07' E 114°17'917.5
2017-Nov-04 14:00N 22°12' E 114°10'8 0.4
2017-Nov-03 16:47N 22°19' E 114°06'410.8
2017-Nov-03 16:26N 22°15' E 114°07'5 9.5
2017-Nov-03 15:51N 22°11' E 114°12'5 9.6
2017-Nov-03 15:21N 22°08' E 114°15'512.5
2017-Nov-03 14:59N 22°08' E 114°20'612.8
2017-Nov-03 14:30N 22°08' E 114°27'611.7
2017-Nov-03 14:00N 22°07' E 114°33'612.4
2017-Nov-03 13:31N 22°07' E 114°40'714.8
2017-Nov-03 13:01N 22°06' E 114°48'815.0
2017-Nov-03 12:30N 22°07' E 114°56'1015.3
2017-Nov-03 11:52N 22°07' E 115°06'1815.0
2017-Nov-03 10:38N 22°07' E 115°26'415.0
2017-Nov-03 10:21N 22°07' E 115°31'515.0
2017-Nov-03 10:00N 22°07' E 115°37'714.9
2017-Nov-03 09:30N 22°07' E 115°45'815.3
2017-Nov-03 08:59N 22°08' E 115°53'715.5
2017-Nov-03 08:30N 22°08' E 116°01'1015.1
2017-Nov-03 07:51N 22°07' E 116°12'  

Dump ship's entire track history